Portada
METAR-TAF:

METAR-TAF

Aeroports :

Macau, Xina

latitud: 22-10N, longitud: 113-34E, altitud: 114 m

Observació

L'informe es va fer fa 32 minuts, a les 12:30 UTC
Vent 1 kt amb direcció variable
Temperatura 15°C
Humitat 51%
Pressió 1025 hPa
Visibilitat 10 km o més
sense núvols per sota de 1500 mi sense presència de cumulonimbus.

METAR: VMMC 181230Z VRB01KT CAVOK 15/05 Q1025 NOSIG

Hora: 21:02 (13:02 UTC)

Pronòstic

L'informe es va fer fa 2 hores i 2 minuts, a les 11:00 UTC
Pronòstic vàlid del 18 a les 12 UTC al 19 a les 18 UTC
Vent 8 kt del Est/Nord-Est
Visibilitat 10 km o més
sense núvols per sota de 1500 mi sense presència de cumulonimbus.
Temporalment
l' 18 a les 18 UTC al 18 a les 24 UTC
Vent 10 kt del Nord

TAF: VMMC 181100Z 1812/1918 07008KT CAVOK TEMPO 1818/1824 01010KT

Observacions i pronòstics meteorològics de més de 4000 aeroports (METAR i TAF).

Les estacions disponibles són els punts grocs i vermells al mapa.

Posi el ratolí al punt desitjat per veure el nom de l'estació.

Feu clic per veure les observacions i els pronòstics meteorològics.

Per canviar el mapa: feu clic els botons verds amb una creu de color negre per apropar; al botó verd amb un guió per allunyar la imatge; o en les fletxes verdes per a mapes adjacents.


METAR-TAF: